Etusivu
METAR-TAF:

METAR-TAF

Lentoasemat :

Nantesin kansainvälinen lentoasema

Nantes, Ranska

Leveyspiiri: 47-10N, Pituuspiiri: 001-36W, korkeus merenpinnasta: 27 m

Tämänhetkinen sää

Tämä raportti tehtiin 16 minuuttia sitten, kello 05.30 UTC
Tuuli 3 kn pohjoisesta
Lämpötila 5°C
Kosteus 87%
Ilmanpaine 1030 hPa
Näkyvyys 10 km tai enemmän
ei pilviä alle 1500 m:ssä eikä cumulonimbus-pilviä

METAR: LFRS 240530Z AUTO 36003KT CAVOK 05/03 Q1030 TEMPO 3000 BR

Aika: 06:46 (05:46 UTC)

Sääennuste

Tämä raportti tehtiin 46 minuuttia sitten, kello 05.00 UTC
Ennuste voimassa 24. päivästä klo 06 UTC - 25. päivään klo 12 UTC
Tuuli 7 kn koillisesta
Näkyvyys 10 km tai enemmän
ei pilviä alle 1500 m:ssä eikä cumulonimbus-pilviä
Todennäköisyys 30% :
Ajoittain
24. päivästä klo 06 UTC - 24. päivään klo 08 UTC
Näkyvyys: 3000 m
utua

TAF: LFRS 240500Z 2406/2512 05007KT CAVOK PROB30 TEMPO 2406/2408 3000 BR

Säähavainnot ja -ennusteet yli 4000 lentoasemalta (METAR- ja TAF-raportit).

Käytössä olevat sääasemat on merkitty karttaan keltaisilla ja punaisilla pisteillä.

Aseta hiiri pisteen päälle nähdäksesi sääaseman nimen.

Klikkaa sitten nähdäksesi säähavainnot ja -ennusteet.

Kartan vaihtaminen: klikkaa mustalla rastilla varustettuja vihreitä pisteitä, niin voit zoomata sisään; viivalla varustettua vihreää pistettä, niin voit zoomata ulos tai vihreitä nuolia, niin pääset viereisille kartoille.


METAR-TAF: